createdAt,value
2022-10-05T00:00:32.119Z,98399.64
2022-10-05T00:03:04.766Z,98405.53
2022-10-05T00:05:33.281Z,98410.58
2022-10-05T00:08:15.270Z,98405.72
2022-10-05T00:10:43.023Z,98412.95
2022-10-05T00:13:19.512Z,98415.87
2022-10-05T00:15:47.898Z,98418.29
2022-10-05T00:18:17.318Z,98416.16
2022-10-05T00:20:45.153Z,98412.13
2022-10-05T00:23:21.783Z,98413.98
2022-10-05T00:25:49.278Z,98415.61
2022-10-05T00:28:22.940Z,98422.27
2022-10-05T00:30:50.580Z,98412.08
2022-10-05T00:33:18.019Z,98414.45
2022-10-05T00:35:46.093Z,98414.19
2022-10-05T00:38:13.494Z,98410.97
2022-10-05T00:41:02.379Z,98413.12
2022-10-05T00:43:42.210Z,98413.94
2022-10-05T00:46:21.762Z,98415.53
2022-10-05T00:49:09.043Z,98423.02
2022-10-05T00:51:37.760Z,98419.00
2022-10-05T00:54:18.329Z,98419.55
2022-10-05T00:57:03.347Z,98423.55
2022-10-05T00:59:49.267Z,98421.92
2022-10-05T01:02:25.726Z,98422.71
2022-10-05T01:05:14.649Z,98426.73
2022-10-05T01:08:03.051Z,98425.69
2022-10-05T01:10:36.918Z,98430.77
2022-10-05T01:13:16.638Z,98428.93
2022-10-05T01:15:50.238Z,98433.26
2022-10-05T01:18:33.739Z,98437.29
2022-10-05T01:21:19.672Z,98435.42
2022-10-05T01:24:07.258Z,98435.73
2022-10-05T01:27:06.436Z,98449.14
2022-10-05T01:29:37.361Z,98454.80
2022-10-05T01:32:29.286Z,98455.13
2022-10-05T01:35:17.890Z,98459.97
2022-10-05T01:37:48.795Z,98465.03
2022-10-05T01:40:40.893Z,98471.48
2022-10-05T01:43:20.636Z,98472.29
2022-10-05T01:46:03.774Z,98468.81
2022-10-05T01:48:51.527Z,98472.29
2022-10-05T01:51:38.582Z,98468.80
2022-10-05T01:54:15.667Z,98475.50
2022-10-05T01:57:07.440Z,98479.53
2022-10-05T01:59:40.877Z,98482.25
2022-10-05T02:02:14.137Z,98475.58
2022-10-05T02:05:02.824Z,98472.91
2022-10-05T02:07:34.219Z,98463.58
2022-10-05T02:10:21.491Z,98465.48
2022-10-05T02:12:51.183Z,98467.41
2022-10-05T02:15:22.465Z,98463.16
2022-10-05T02:17:52.720Z,98456.22
2022-10-05T02:20:23.325Z,98457.02
2022-10-05T02:22:57.179Z,98454.08
2022-10-05T02:25:30.801Z,98454.34
2022-10-05T02:28:09.835Z,98466.63
2022-10-05T02:30:41.473Z,98466.63
2022-10-05T02:33:25.061Z,98471.98
2022-10-05T02:35:53.434Z,98477.88
2022-10-05T02:38:27.036Z,98471.68
2022-10-05T02:41:17.981Z,98478.62
2022-10-05T02:43:51.808Z,98482.89
2022-10-05T02:46:28.847Z,98482.09
2022-10-05T02:49:15.011Z,98486.66
2022-10-05T02:52:03.588Z,98489.63
2022-10-05T02:54:34.686Z,98495.82
2022-10-05T02:57:11.248Z,98487.79
2022-10-05T02:59:42.014Z,98491.27
2022-10-05T03:02:16.736Z,98498.25
2022-10-05T03:04:53.687Z,98489.39
2022-10-05T03:07:33.867Z,98488.89
2022-10-05T03:10:12.838Z,98502.81
2022-10-05T03:13:03.235Z,98502.28
2022-10-05T03:15:50.914Z,98505.75
2022-10-05T03:18:38.599Z,98507.09
2022-10-05T03:21:35.265Z,98513.78
2022-10-05T03:24:31.831Z,98521.55
2022-10-05T03:27:06.877Z,98518.59
2022-10-05T03:29:55.967Z,98525.32
2022-10-05T03:32:51.266Z,98521.06
2022-10-05T03:35:25.315Z,98517.89
2022-10-05T03:38:11.095Z,98517.13
2022-10-05T03:40:57.305Z,98520.63
2022-10-05T03:43:48.015Z,98516.40
2022-10-05T03:46:25.140Z,98519.88
2022-10-05T03:49:08.192Z,98530.28
2022-10-05T03:51:38.037Z,98536.97
2022-10-05T03:54:23.610Z,98543.94
2022-10-05T03:56:56.918Z,98537.52
2022-10-05T03:59:32.552Z,98546.08
2022-10-05T04:02:05.161Z,98548.18
2022-10-05T04:04:45.165Z,98555.95
2022-10-05T04:07:24.975Z,98552.98
2022-10-05T04:09:53.012Z,98555.41
2022-10-05T04:12:25.920Z,98557.26
2022-10-05T04:15:18.573Z,98565.28
2022-10-05T04:17:48.979Z,98565.83
2022-10-05T04:20:22.283Z,98566.63
2022-10-05T04:23:02.015Z,98565.03
2022-10-05T04:25:38.903Z,98570.09
2022-10-05T04:28:32.576Z,98567.45
2022-10-05T04:31:02.765Z,98570.41
2022-10-05T04:33:31.451Z,98579.52
2022-10-05T04:36:18.937Z,98578.45
2022-10-05T04:38:52.858Z,98579.25
2022-10-05T04:41:50.281Z,98584.86
2022-10-05T04:44:24.560Z,98588.36
2022-10-05T04:47:16.980Z,98594.25
2022-10-05T04:49:51.120Z,98600.39
2022-10-05T04:52:37.528Z,98605.75
2022-10-05T04:55:28.708Z,98605.18
2022-10-05T04:58:18.114Z,98608.66
2022-10-05T05:01:01.955Z,98608.66
2022-10-05T05:03:51.131Z,98618.81
2022-10-05T05:06:40.909Z,98615.34
2022-10-05T05:09:25.377Z,98622.30
2022-10-05T05:12:20.818Z,98622.30
2022-10-05T05:15:04.348Z,98631.37
2022-10-05T05:17:37.301Z,98629.78
2022-10-05T05:20:19.283Z,98634.88
2022-10-05T05:22:50.681Z,98634.88
2022-10-05T05:25:28.272Z,98632.20
2022-10-05T05:28:08.368Z,98633.79
2022-10-05T05:30:39.690Z,98629.23
2022-10-05T05:33:26.907Z,98632.99
2022-10-05T05:36:23.426Z,98632.99
2022-10-05T05:39:14.300Z,98638.34
2022-10-05T05:41:57.612Z,98639.69
2022-10-05T05:44:27.916Z,98639.94
2022-10-05T05:47:05.732Z,98646.63
2022-10-05T05:50:07.112Z,98651.19
2022-10-05T05:52:35.486Z,98649.84
2022-10-05T05:55:15.100Z,98654.13
2022-10-05T05:57:46.330Z,98660.53
2022-10-05T06:00:21.972Z,98661.56
2022-10-05T06:03:00.885Z,98664.24
2022-10-05T06:05:40.765Z,98663.41
2022-10-05T06:08:48.198Z,98669.31
2022-10-05T06:11:24.542Z,98671.96
2022-10-05T06:13:51.855Z,98667.66
2022-10-05T06:16:26.029Z,98674.09
2022-10-05T06:18:59.054Z,98673.56
2022-10-05T06:21:35.987Z,98670.59
2022-10-05T06:24:09.850Z,98669.80
2022-10-05T06:27:01.561Z,98676.20
2022-10-05T06:29:44.728Z,98681.02
2022-10-05T06:32:29.683Z,98686.62
2022-10-05T06:35:07.754Z,98690.90
2022-10-05T06:37:59.852Z,98697.56
2022-10-05T06:40:40.953Z,98705.05
2022-10-05T06:43:26.909Z,98710.34
2022-10-05T06:46:24.969Z,98707.61
2022-10-05T06:49:23.097Z,98718.30
2022-10-05T06:52:16.454Z,98720.16
2022-10-05T06:55:03.962Z,98721.96
2022-10-05T06:58:04.568Z,98731.00
2022-10-05T07:00:44.566Z,98726.43
2022-10-05T07:03:24.923Z,98727.77
2022-10-05T07:05:58.812Z,98728.91
2022-10-05T07:08:58.351Z,98732.92
2022-10-05T07:11:37.829Z,98726.22
2022-10-05T07:14:27.852Z,98728.11
2022-10-05T07:17:16.622Z,98730.80
2022-10-05T07:19:59.043Z,98737.21
2022-10-05T07:22:42.697Z,98742.22
2022-10-05T07:25:23.167Z,98744.58
2022-10-05T07:27:54.509Z,98751.27
2022-10-05T07:30:22.252Z,98754.50
2022-10-05T07:33:01.997Z,98753.94
2022-10-05T07:35:46.744Z,98751.20
2022-10-05T07:38:20.576Z,98755.16
2022-10-05T07:40:53.946Z,98762.59
2022-10-05T07:43:45.343Z,98754.72
2022-10-05T07:46:19.685Z,98754.95
2022-10-05T07:49:02.239Z,98760.95
2022-10-05T07:51:36.816Z,98768.49
2022-10-05T07:54:25.497Z,98762.89
2022-10-05T07:57:09.317Z,98761.80
2022-10-05T07:59:48.010Z,98760.98
2022-10-05T08:02:19.747Z,98754.55
2022-10-05T08:04:53.632Z,98757.76
2022-10-05T08:07:21.132Z,98753.98
2022-10-05T08:09:55.026Z,98757.44
2022-10-05T08:12:41.057Z,98763.00
2022-10-05T08:15:16.162Z,98751.69
2022-10-05T08:18:12.783Z,98750.05
2022-10-05T08:20:48.402Z,98748.67
2022-10-05T08:23:46.122Z,98752.61
2022-10-05T08:26:42.640Z,98763.77
2022-10-05T08:29:16.249Z,98762.57
2022-10-05T08:31:50.473Z,98758.73
2022-10-05T08:34:29.143Z,98765.94
2022-10-05T08:37:19.362Z,98759.45
2022-10-05T08:39:56.346Z,98748.16
2022-10-05T08:42:42.524Z,98748.40
2022-10-05T08:48:02.534Z,98758.45
2022-10-05T08:50:33.405Z,98774.80
2022-10-05T08:53:36.037Z,98775.34
2022-10-05T08:56:26.352Z,98777.97
2022-10-05T08:59:00.786Z,98788.63
2022-10-05T09:01:34.752Z,98795.09
2022-10-05T09:04:17.557Z,98798.42
2022-10-05T09:07:21.624Z,98806.58
2022-10-05T09:10:26.944Z,98810.63
2022-10-05T09:13:18.924Z,98829.97
2022-10-05T09:15:52.630Z,98828.03
2022-10-05T09:18:32.800Z,98833.13
2022-10-05T09:21:15.479Z,98831.64
2022-10-05T09:23:44.354Z,98837.68
2022-10-05T09:26:30.309Z,98832.06
2022-10-05T09:29:17.759Z,98833.30
2022-10-05T09:32:14.189Z,98830.55
2022-10-05T09:35:00.489Z,98821.95
2022-10-05T09:37:43.606Z,98832.47
2022-10-05T09:40:34.280Z,98823.68
2022-10-05T09:43:19.808Z,98823.94
2022-10-05T09:46:07.039Z,98822.97
2022-10-05T09:48:55.502Z,98821.41
2022-10-05T09:51:26.176Z,98813.14
2022-10-05T09:54:20.013Z,98805.84
2022-10-05T09:57:12.228Z,98808.05
2022-10-05T10:00:11.919Z,98809.03
2022-10-05T10:03:05.730Z,98812.75
2022-10-05T10:06:02.010Z,98802.69
2022-10-05T10:08:45.129Z,98804.95
2022-10-05T10:11:50.864Z,98808.33
2022-10-05T10:17:37.394Z,98798.31
2022-10-05T10:20:36.900Z,98786.41
2022-10-05T10:23:33.284Z,98778.17
2022-10-05T10:26:18.849Z,98780.78
2022-10-05T10:29:04.885Z,98772.32
2022-10-05T10:32:09.565Z,98771.84
2022-10-05T10:34:49.624Z,98773.89
2022-10-05T10:37:36.719Z,98770.05
2022-10-05T10:40:26.280Z,98761.24
2022-10-05T10:42:58.592Z,98755.94
2022-10-05T10:45:48.685Z,98756.52
2022-10-05T10:48:31.556Z,98744.40
2022-10-05T10:51:24.551Z,98741.04
2022-10-05T10:54:11.918Z,98735.94
2022-10-05T10:57:08.709Z,98730.63
2022-10-05T10:59:57.532Z,98721.39
2022-10-05T11:02:36.475Z,98725.77
2022-10-05T11:05:19.060Z,98723.44
2022-10-05T11:08:06.559Z,98724.62
2022-10-05T11:10:54.024Z,98721.59
2022-10-05T11:13:43.034Z,98723.27
2022-10-05T11:16:33.882Z,98714.78
2022-10-05T11:19:40.730Z,98709.39
2022-10-05T11:22:44.378Z,98705.45
2022-10-05T11:25:21.486Z,98704.89
2022-10-05T11:28:04.366Z,98704.67
2022-10-05T11:30:50.389Z,98702.41
2022-10-05T11:33:35.088Z,98700.22
2022-10-05T11:36:20.887Z,98698.10
2022-10-05T11:38:57.368Z,98701.73
2022-10-05T11:41:43.187Z,98702.55
2022-10-05T11:44:42.979Z,98696.81
2022-10-05T11:47:16.746Z,98696.76
2022-10-05T11:49:47.758Z,98697.41
2022-10-05T11:52:22.979Z,98699.48
2022-10-05T11:55:21.245Z,98699.77
2022-10-05T11:57:56.946Z,98696.25
2022-10-05T12:00:33.743Z,98697.13
2022-10-05T12:03:20.956Z,98694.49
2022-10-05T12:05:51.814Z,98693.90
2022-10-05T12:08:31.668Z,98696.50
2022-10-05T12:11:38.957Z,98690.63
2022-10-05T12:14:26.584Z,98690.41
2022-10-05T12:17:09.332Z,98687.77
2022-10-05T12:19:45.471Z,98684.84
2022-10-05T12:22:18.607Z,98686.59
2022-10-05T12:25:03.868Z,98681.84
2022-10-05T12:27:34.572Z,98686.55
2022-10-05T12:30:13.927Z,98688.05
2022-10-05T12:32:50.781Z,98690.02
2022-10-05T12:35:43.546Z,98696.23
2022-10-05T12:37:57.962Z,98694.72
2022-10-05T12:40:46.115Z,98695.84
2022-10-05T12:43:26.062Z,98695.59
2022-10-05T12:46:05.973Z,98698.78
2022-10-05T12:48:50.991Z,98691.67
2022-10-05T12:51:55.139Z,98690.98
2022-10-05T12:54:51.384Z,98698.14
2022-10-05T12:57:34.059Z,98697.77
2022-10-05T13:00:22.725Z,98698.89
2022-10-05T13:02:54.527Z,98698.73
2022-10-05T13:05:32.770Z,98698.48
2022-10-05T13:08:22.524Z,98696.90
2022-10-05T13:11:05.936Z,98693.62
2022-10-05T13:14:12.012Z,98691.70
2022-10-05T13:16:56.627Z,98694.19
2022-10-05T13:19:46.173Z,98691.09
2022-10-05T13:22:29.604Z,98692.98
2022-10-05T13:25:17.083Z,98690.73
2022-10-05T13:27:51.329Z,98682.75
2022-10-05T13:30:21.763Z,98673.48
2022-10-05T13:32:56.439Z,98668.20
2022-10-05T13:35:45.551Z,98664.66
2022-10-05T13:38:25.546Z,98662.16
2022-10-05T13:41:08.588Z,98648.83
2022-10-05T13:43:57.437Z,98647.33
2022-10-05T13:46:46.700Z,98647.33
2022-10-05T13:49:28.386Z,98652.59
2022-10-05T13:52:19.055Z,98653.66
2022-10-05T13:55:01.846Z,98648.23
2022-10-05T13:57:54.645Z,98643.41
2022-10-05T14:00:26.524Z,98651.36
2022-10-05T14:02:55.865Z,98652.17
2022-10-05T14:05:27.207Z,98649.31
2022-10-05T14:07:58.348Z,98657.45
2022-10-05T14:10:43.757Z,98658.43
2022-10-05T14:13:26.215Z,98656.70
2022-10-05T14:16:08.985Z,98659.86
2022-10-05T14:18:37.538Z,98659.75
2022-10-05T14:21:11.382Z,98650.34
2022-10-05T14:23:42.457Z,98646.84
2022-10-05T14:26:32.741Z,98648.31
2022-10-05T14:29:03.924Z,98655.16
2022-10-05T14:31:34.778Z,98650.72
2022-10-05T14:34:23.630Z,98649.12
2022-10-05T14:37:04.293Z,98652.87
2022-10-05T14:39:33.863Z,98651.13
2022-10-05T14:42:14.182Z,98650.00
2022-10-05T14:44:41.708Z,98649.15
2022-10-05T14:47:18.165Z,98649.52
2022-10-05T14:50:17.164Z,98639.42
2022-10-05T14:52:59.661Z,98644.41
2022-10-05T14:55:43.144Z,98644.02
2022-10-05T14:58:14.266Z,98655.88
2022-10-05T15:00:48.943Z,98652.84
2022-10-05T15:03:34.905Z,98650.36
2022-10-05T15:06:03.122Z,98652.73
2022-10-05T15:08:47.511Z,98651.05
2022-10-05T15:11:39.774Z,98652.30
2022-10-05T15:14:10.722Z,98644.35
2022-10-05T15:16:39.958Z,98642.40
2022-10-05T15:19:22.762Z,98640.14
2022-10-05T15:22:08.906Z,98644.95
2022-10-05T15:24:57.838Z,98641.90
2022-10-05T15:27:31.897Z,98645.93
2022-10-05T15:30:07.221Z,98648.81
2022-10-05T15:32:47.298Z,98647.67
2022-10-05T15:35:40.520Z,98649.22
2022-10-05T15:38:25.771Z,98654.03
2022-10-05T15:41:06.129Z,98652.14
2022-10-05T15:43:37.632Z,98653.24
2022-10-05T15:46:21.539Z,98661.64
2022-10-05T15:49:16.010Z,98664.05
2022-10-05T15:52:18.300Z,98662.75
2022-10-05T15:54:58.423Z,98658.50
2022-10-05T15:57:41.246Z,98669.56
2022-10-05T16:00:17.182Z,98666.02
2022-10-05T16:03:04.516Z,98670.55
2022-10-05T16:06:02.508Z,98672.42
2022-10-05T16:08:53.595Z,98676.16
2022-10-05T16:11:45.528Z,98674.02
2022-10-05T16:14:38.798Z,98679.66
2022-10-05T16:17:29.365Z,98668.86
2022-10-05T16:20:06.224Z,98675.33
2022-10-05T16:22:48.873Z,98678.50
2022-10-05T16:25:21.878Z,98682.22
2022-10-05T16:28:08.028Z,98686.17
2022-10-05T16:30:45.037Z,98693.05
2022-10-05T16:33:16.077Z,98686.45
2022-10-05T16:35:53.229Z,98686.23
2022-10-05T16:38:26.727Z,98691.67
2022-10-05T16:41:21.812Z,98694.75
2022-10-05T16:43:52.817Z,98699.39
2022-10-05T16:46:35.609Z,98702.22
2022-10-05T16:49:16.017Z,98702.88
2022-10-05T16:51:58.523Z,98700.31
2022-10-05T16:54:35.153Z,98701.19
2022-10-05T16:57:23.965Z,98697.22
2022-10-05T17:00:13.610Z,98700.53
2022-10-05T17:02:58.675Z,98705.14
2022-10-05T17:05:32.268Z,98715.91
2022-10-05T17:08:11.805Z,98719.46
2022-10-05T17:11:01.976Z,98718.16
2022-10-05T17:14:05.217Z,98727.10
2022-10-05T17:16:39.060Z,98734.75
2022-10-05T17:19:25.058Z,98732.41
2022-10-05T17:22:04.983Z,98727.62
2022-10-05T17:24:54.418Z,98723.11
2022-10-05T17:27:37.210Z,98719.41
2022-10-05T17:30:24.706Z,98726.18
2022-10-05T17:33:03.447Z,98720.05
2022-10-05T17:36:07.943Z,98714.98
2022-10-05T17:38:41.687Z,98717.98
2022-10-05T17:41:20.923Z,98719.08
2022-10-05T17:44:08.282Z,98719.09
2022-10-05T17:46:45.107Z,98717.22
2022-10-05T17:49:21.913Z,98717.81
2022-10-05T17:52:11.377Z,98718.63
2022-10-05T17:55:07.270Z,98713.81
2022-10-05T17:57:36.264Z,98716.50
2022-10-05T18:00:28.482Z,98722.72
2022-10-05T18:02:57.621Z,98729.98
2022-10-05T18:05:29.072Z,98736.19
2022-10-05T18:08:17.031Z,98731.39
2022-10-05T18:11:12.383Z,98727.92
2022-10-05T18:13:46.712Z,98730.61
2022-10-05T18:16:34.176Z,98734.90
2022-10-05T18:19:02.232Z,98734.95
2022-10-05T18:21:35.117Z,98733.12
2022-10-05T18:24:15.934Z,98732.34
2022-10-05T18:26:59.101Z,98727.28
2022-10-05T18:30:11.817Z,98726.78
2022-10-05T18:32:57.722Z,98727.06
2022-10-05T18:35:50.361Z,98724.64
2022-10-05T18:38:28.965Z,98717.44
2022-10-05T18:41:01.698Z,98720.41
2022-10-05T18:43:53.897Z,98718.83
2022-10-05T18:46:42.711Z,98726.33
2022-10-05T18:49:32.412Z,98728.76
2022-10-05T18:52:18.770Z,98735.21
2022-10-05T18:55:05.354Z,98732.56
2022-10-05T18:58:04.581Z,98736.59
2022-10-05T19:00:42.032Z,98733.37
2022-10-05T19:03:39.711Z,98734.20
2022-10-05T19:09:39.532Z,98744.12
2022-10-05T19:12:52.331Z,98741.47
2022-10-05T19:15:30.095Z,98747.91
2022-10-05T19:18:03.327Z,98744.44
2022-10-05T19:20:45.122Z,98751.67
2022-10-05T19:23:25.598Z,98753.30
2022-10-05T19:26:20.827Z,98750.08
2022-10-05T19:28:57.988Z,98755.17
2022-10-05T19:31:38.091Z,98758.39
2022-10-05T19:34:25.954Z,98765.37
2022-10-05T19:36:58.601Z,98764.03
2022-10-05T19:39:58.195Z,98764.56
2022-10-05T19:42:49.042Z,98769.91
2022-10-05T19:45:27.914Z,98773.41
2022-10-05T19:48:21.627Z,98769.67
2022-10-05T19:50:55.183Z,98768.08
2022-10-05T19:53:31.922Z,98768.06
2022-10-05T19:56:18.524Z,98768.34
2022-10-05T19:58:47.124Z,98765.13
2022-10-05T20:01:29.587Z,98769.16
2022-10-05T20:04:00.422Z,98762.47
2022-10-05T20:06:30.676Z,98761.92
2022-10-05T20:09:03.864Z,98766.76
2022-10-05T20:11:31.864Z,98763.02
2022-10-05T20:14:03.430Z,98766.77
2022-10-05T20:16:50.519Z,98771.56
2022-10-05T20:19:40.008Z,98769.69
2022-10-05T20:22:35.957Z,98769.70
2022-10-05T20:25:09.837Z,98768.36
2022-10-05T20:27:41.115Z,98768.35
2022-10-05T20:30:14.348Z,98772.89
2022-10-05T20:32:47.144Z,98766.23
2022-10-05T20:35:16.023Z,98770.23
2022-10-05T20:37:43.488Z,98779.86
2022-10-05T20:40:10.984Z,98777.17
2022-10-05T20:42:38.393Z,98782.53
2022-10-05T20:45:06.798Z,98780.09
2022-10-05T20:47:36.216Z,98787.06
2022-10-05T20:50:05.496Z,98786.25
2022-10-05T20:52:33.059Z,98773.41
2022-10-05T20:55:04.725Z,98771.55
2022-10-05T20:57:33.647Z,98769.66
2022-10-05T21:00:01.634Z,98768.31
2022-10-05T21:02:29.341Z,98762.69
2022-10-05T21:04:59.909Z,98765.91
2022-10-05T21:07:28.711Z,98764.30
2022-10-05T21:09:56.509Z,98770.44
2022-10-05T21:12:25.863Z,98770.70
2022-10-05T21:14:59.186Z,98776.05
2022-10-05T21:17:26.719Z,98779.00
2022-10-05T21:19:54.183Z,98766.95
2022-10-05T21:22:22.265Z,98771.75
2022-10-05T21:24:49.680Z,98770.95
2022-10-05T21:27:17.207Z,98765.06
2022-10-05T21:29:44.762Z,98773.63
2022-10-05T21:32:12.168Z,98765.89
2022-10-05T21:34:40.766Z,98766.16
2022-10-05T21:37:08.515Z,98764.54
2022-10-05T21:39:36.110Z,98762.94
2022-10-05T21:42:04.045Z,98760.02
2022-10-05T21:44:31.707Z,98761.89
2022-10-05T21:46:59.137Z,98758.14
2022-10-05T21:49:26.974Z,98757.59
2022-10-05T21:51:54.600Z,98760.80
2022-10-05T21:54:23.156Z,98759.20
2022-10-05T21:56:52.547Z,98755.44
2022-10-05T21:59:22.537Z,98759.46
2022-10-05T22:01:50.127Z,98757.03
2022-10-05T22:04:17.776Z,98759.17
2022-10-05T22:06:45.447Z,98758.91
2022-10-05T22:09:13.103Z,98763.72
2022-10-05T22:11:40.804Z,98761.58
2022-10-05T22:14:10.774Z,98755.44
2022-10-05T22:16:40.724Z,98754.38
2022-10-05T22:19:14.587Z,98760.23
2022-10-05T22:21:42.340Z,98751.95
2022-10-05T22:24:12.470Z,98746.61
2022-10-05T22:26:46.847Z,98747.14
2022-10-05T22:29:16.108Z,98745.01
2022-10-05T22:31:48.177Z,98748.48
2022-10-05T22:34:18.905Z,98750.08
2022-10-05T22:36:50.930Z,98743.94
2022-10-05T22:39:25.600Z,98743.67
2022-10-05T22:41:56.524Z,98741.80
2022-10-05T22:44:27.355Z,98738.59
2022-10-05T22:46:56.954Z,98734.58
2022-10-05T22:49:25.711Z,98736.72
2022-10-05T22:51:59.440Z,98730.03
2022-10-05T22:54:32.469Z,98731.37
2022-10-05T22:56:59.907Z,98737.79
2022-10-05T22:59:29.866Z,98733.78
2022-10-05T23:01:57.715Z,98731.11
2022-10-05T23:04:25.557Z,98729.25
2022-10-05T23:06:52.936Z,98723.91
2022-10-05T23:09:20.327Z,98726.58
2022-10-05T23:11:49.591Z,98723.09
2022-10-05T23:14:17.469Z,98720.70
2022-10-05T23:16:45.019Z,98722.55
2022-10-05T23:19:12.362Z,98724.67
2022-10-05T23:21:40.006Z,98724.95
2022-10-05T23:24:07.725Z,98718.26
2022-10-05T23:26:35.193Z,98726.26
2022-10-05T23:29:02.523Z,98722.53
2022-10-05T23:31:30.855Z,98723.86
2022-10-05T23:33:58.457Z,98723.57
2022-10-05T23:36:27.930Z,98728.41
2022-10-05T23:38:55.350Z,98730.50
2022-10-05T23:41:23.126Z,98730.55
2022-10-05T23:43:50.744Z,98727.33
2022-10-05T23:46:18.494Z,98726.26
2022-10-05T23:48:53.734Z,98724.92
2022-10-05T23:51:34.913Z,98729.73
2022-10-05T23:54:02.385Z,98722.52
2022-10-05T23:56:31.241Z,98720.13
2022-10-05T23:58:58.887Z,98720.13
